sensor_id;sensor_type;location;lat;lon;timestamp;temperature;humidity
53294;DHT22;39181;53.440;5.644;2023-05-10T00:01:58;12.30;99.90
53294;DHT22;39181;53.440;5.644;2023-05-10T00:04:24;12.40;99.90
53294;DHT22;39181;53.440;5.644;2023-05-10T00:06:53;12.30;99.90
53294;DHT22;39181;53.440;5.644;2023-05-10T00:09:19;12.30;99.90
53294;DHT22;39181;53.440;5.644;2023-05-10T00:11:44;12.30;99.90
53294;DHT22;39181;53.440;5.644;2023-05-10T00:14:10;12.30;99.90
53294;DHT22;39181;53.440;5.644;2023-05-10T00:16:36;12.30;99.90
53294;DHT22;39181;53.440;5.644;2023-05-10T00:19:01;12.30;99.90
53294;DHT22;39181;53.440;5.644;2023-05-10T00:21:27;12.20;99.90
53294;DHT22;39181;53.440;5.644;2023-05-10T00:23:53;12.30;99.90
53294;DHT22;39181;53.440;5.644;2023-05-10T00:26:19;12.20;99.90
53294;DHT22;39181;53.440;5.644;2023-05-10T00:28:45;12.30;99.90
53294;DHT22;39181;53.440;5.644;2023-05-10T00:31:11;12.20;99.90
53294;DHT22;39181;53.440;5.644;2023-05-10T00:33:36;12.20;99.90
53294;DHT22;39181;53.440;5.644;2023-05-10T00:36:02;12.30;99.90
53294;DHT22;39181;53.440;5.644;2023-05-10T00:38:28;12.20;99.90
53294;DHT22;39181;53.440;5.644;2023-05-10T00:40:53;12.30;99.90
53294;DHT22;39181;53.440;5.644;2023-05-10T00:43:19;12.20;99.90
53294;DHT22;39181;53.440;5.644;2023-05-10T00:45:45;12.20;99.90
53294;DHT22;39181;53.440;5.644;2023-05-10T00:48:11;12.10;99.90
53294;DHT22;39181;53.440;5.644;2023-05-10T00:50:37;12.10;99.90
53294;DHT22;39181;53.440;5.644;2023-05-10T00:53:03;12.10;99.90
53294;DHT22;39181;53.440;5.644;2023-05-10T00:55:28;12.10;99.90
53294;DHT22;39181;53.440;5.644;2023-05-10T00:57:54;12.10;99.90
53294;DHT22;39181;53.440;5.644;2023-05-10T01:00:21;12.10;99.90
53294;DHT22;39181;53.440;5.644;2023-05-10T01:02:47;12.00;99.90
53294;DHT22;39181;53.440;5.644;2023-05-10T01:05:13;12.00;99.90
53294;DHT22;39181;53.440;5.644;2023-05-10T01:07:39;11.90;99.90
53294;DHT22;39181;53.440;5.644;2023-05-10T01:10:06;11.90;99.90
53294;DHT22;39181;53.440;5.644;2023-05-10T01:12:32;11.90;99.90
53294;DHT22;39181;53.440;5.644;2023-05-10T01:15:00;11.90;99.90
53294;DHT22;39181;53.440;5.644;2023-05-10T01:17:27;11.90;99.90
53294;DHT22;39181;53.440;5.644;2023-05-10T01:19:52;11.90;99.90
53294;DHT22;39181;53.440;5.644;2023-05-10T01:28:42;11.80;99.90
53294;DHT22;39181;53.440;5.644;2023-05-10T01:34:08;11.70;99.90
53294;DHT22;39181;53.440;5.644;2023-05-10T01:36:45;11.70;99.90
53294;DHT22;39181;53.440;5.644;2023-05-10T01:42:10;11.60;99.90
53294;DHT22;39181;53.440;5.644;2023-05-10T01:47:35;11.60;99.90
53294;DHT22;39181;53.440;5.644;2023-05-10T01:50:04;11.60;99.90
53294;DHT22;39181;53.440;5.644;2023-05-10T01:52:38;11.60;99.90
53294;DHT22;39181;53.440;5.644;2023-05-10T01:55:09;11.50;99.90
53294;DHT22;39181;53.440;5.644;2023-05-10T01:57:37;11.60;99.90
53294;DHT22;39181;53.440;5.644;2023-05-10T02:00:06;11.60;99.90
53294;DHT22;39181;53.440;5.644;2023-05-10T02:02:37;11.60;99.90
53294;DHT22;39181;53.440;5.644;2023-05-10T02:05:05;11.60;99.90
53294;DHT22;39181;53.440;5.644;2023-05-10T02:07:34;11.50;99.90
53294;DHT22;39181;53.440;5.644;2023-05-10T02:10:05;11.50;99.90
53294;DHT22;39181;53.440;5.644;2023-05-10T02:12:43;11.50;99.90
53294;DHT22;39181;53.440;5.644;2023-05-10T02:15:11;11.50;99.90
53294;DHT22;39181;53.440;5.644;2023-05-10T02:17:38;11.50;99.90
53294;DHT22;39181;53.440;5.644;2023-05-10T02:20:06;11.50;99.90
53294;DHT22;39181;53.440;5.644;2023-05-10T02:22:35;11.60;99.90
53294;DHT22;39181;53.440;5.644;2023-05-10T02:25:01;11.60;99.90
53294;DHT22;39181;53.440;5.644;2023-05-10T02:27:28;11.60;99.90
53294;DHT22;39181;53.440;5.644;2023-05-10T02:29:54;11.60;99.90
53294;DHT22;39181;53.440;5.644;2023-05-10T02:32:21;11.60;99.90
53294;DHT22;39181;53.440;5.644;2023-05-10T02:34:48;11.60;99.90
53294;DHT22;39181;53.440;5.644;2023-05-10T02:37:18;11.60;99.90
53294;DHT22;39181;53.440;5.644;2023-05-10T02:39:47;11.50;99.90
53294;DHT22;39181;53.440;5.644;2023-05-10T02:42:25;11.60;99.90
53294;DHT22;39181;53.440;5.644;2023-05-10T02:44:54;11.60;99.90
53294;DHT22;39181;53.440;5.644;2023-05-10T02:47:21;11.50;99.90
53294;DHT22;39181;53.440;5.644;2023-05-10T02:49:48;11.70;99.90
53294;DHT22;39181;53.440;5.644;2023-05-10T02:52:16;11.60;99.90
53294;DHT22;39181;53.440;5.644;2023-05-10T02:54:45;11.60;99.90
53294;DHT22;39181;53.440;5.644;2023-05-10T02:57:16;11.60;99.90
53294;DHT22;39181;53.440;5.644;2023-05-10T02:59:43;11.60;99.90
53294;DHT22;39181;53.440;5.644;2023-05-10T03:02:10;11.60;99.90
53294;DHT22;39181;53.440;5.644;2023-05-10T03:04:36;11.60;99.90
53294;DHT22;39181;53.440;5.644;2023-05-10T03:07:02;11.60;99.90
53294;DHT22;39181;53.440;5.644;2023-05-10T03:09:28;11.50;99.90
53294;DHT22;39181;53.440;5.644;2023-05-10T03:12:15;11.70;99.90
53294;DHT22;39181;53.440;5.644;2023-05-10T03:15:17;11.60;99.90
53294;DHT22;39181;53.440;5.644;2023-05-10T03:17:52;11.60;99.90
53294;DHT22;39181;53.440;5.644;2023-05-10T03:20:29;11.60;99.90
53294;DHT22;39181;53.440;5.644;2023-05-10T03:23:22;11.50;99.90
53294;DHT22;39181;53.440;5.644;2023-05-10T03:25:52;11.50;99.90
53294;DHT22;39181;53.440;5.644;2023-05-10T03:28:18;11.50;99.90
53294;DHT22;39181;53.440;5.644;2023-05-10T03:30:45;11.50;99.90
53294;DHT22;39181;53.440;5.644;2023-05-10T03:33:11;11.50;99.90
53294;DHT22;39181;53.440;5.644;2023-05-10T03:35:38;11.50;99.90
53294;DHT22;39181;53.440;5.644;2023-05-10T03:38:04;11.50;99.90
53294;DHT22;39181;53.440;5.644;2023-05-10T03:40:29;11.50;99.90
53294;DHT22;39181;53.440;5.644;2023-05-10T03:43:00;11.60;99.90
53294;DHT22;39181;53.440;5.644;2023-05-10T03:45:25;11.60;99.90
53294;DHT22;39181;53.440;5.644;2023-05-10T03:47:51;11.50;99.90
53294;DHT22;39181;53.440;5.644;2023-05-10T03:50:17;11.60;99.90
53294;DHT22;39181;53.440;5.644;2023-05-10T03:52:43;11.50;99.90
53294;DHT22;39181;53.440;5.644;2023-05-10T03:55:09;11.80;99.90
53294;DHT22;39181;53.440;5.644;2023-05-10T03:57:35;11.40;99.90
53294;DHT22;39181;53.440;5.644;2023-05-10T04:00:02;11.50;99.90
53294;DHT22;39181;53.440;5.644;2023-05-10T04:02:28;11.50;99.90
53294;DHT22;39181;53.440;5.644;2023-05-10T04:04:55;11.50;99.90
53294;DHT22;39181;53.440;5.644;2023-05-10T04:07:20;11.50;99.90
53294;DHT22;39181;53.440;5.644;2023-05-10T04:09:46;11.50;99.90
53294;DHT22;39181;53.440;5.644;2023-05-10T04:12:12;11.40;99.90
53294;DHT22;39181;53.440;5.644;2023-05-10T04:14:38;11.40;99.90
53294;DHT22;39181;53.440;5.644;2023-05-10T04:17:03;11.40;99.90
53294;DHT22;39181;53.440;5.644;2023-05-10T04:19:32;11.40;99.90
53294;DHT22;39181;53.440;5.644;2023-05-10T04:21:58;11.40;99.90
53294;DHT22;39181;53.440;5.644;2023-05-10T04:24:24;11.40;99.90
53294;DHT22;39181;53.440;5.644;2023-05-10T04:26:50;11.40;99.90
53294;DHT22;39181;53.440;5.644;2023-05-10T04:29:16;11.40;99.90
53294;DHT22;39181;53.440;5.644;2023-05-10T04:31:42;11.40;99.90
53294;DHT22;39181;53.440;5.644;2023-05-10T04:34:07;11.40;99.90
53294;DHT22;39181;53.440;5.644;2023-05-10T04:36:33;11.40;99.90
53294;DHT22;39181;53.440;5.644;2023-05-10T04:39:01;11.40;99.90
53294;DHT22;39181;53.440;5.644;2023-05-10T04:41:28;11.50;99.90
53294;DHT22;39181;53.440;5.644;2023-05-10T04:43:53;11.40;99.90
53294;DHT22;39181;53.440;5.644;2023-05-10T04:46:19;11.50;99.90
53294;DHT22;39181;53.440;5.644;2023-05-10T04:48:45;11.50;99.90
53294;DHT22;39181;53.440;5.644;2023-05-10T04:51:11;11.50;99.90
53294;DHT22;39181;53.440;5.644;2023-05-10T04:53:36;11.40;99.90
53294;DHT22;39181;53.440;5.644;2023-05-10T04:56:02;11.40;99.90
53294;DHT22;39181;53.440;5.644;2023-05-10T04:58:27;11.50;99.90
53294;DHT22;39181;53.440;5.644;2023-05-10T05:00:53;11.50;99.90
53294;DHT22;39181;53.440;5.644;2023-05-10T05:03:19;11.50;99.90
53294;DHT22;39181;53.440;5.644;2023-05-10T05:05:44;11.50;99.90
53294;DHT22;39181;53.440;5.644;2023-05-10T05:08:10;11.50;99.90
53294;DHT22;39181;53.440;5.644;2023-05-10T05:10:35;11.60;99.90
53294;DHT22;39181;53.440;5.644;2023-05-10T05:13:01;11.60;99.90
53294;DHT22;39181;53.440;5.644;2023-05-10T05:15:26;11.60;99.90
53294;DHT22;39181;53.440;5.644;2023-05-10T05:17:52;11.60;99.90
53294;DHT22;39181;53.440;5.644;2023-05-10T05:20:18;11.60;99.90
53294;DHT22;39181;53.440;5.644;2023-05-10T05:22:44;11.60;99.90
53294;DHT22;39181;53.440;5.644;2023-05-10T05:25:10;11.60;99.90
53294;DHT22;39181;53.440;5.644;2023-05-10T05:27:37;11.60;99.90
53294;DHT22;39181;53.440;5.644;2023-05-10T05:30:03;11.60;99.90
53294;DHT22;39181;53.440;5.644;2023-05-10T05:32:30;11.60;99.90
53294;DHT22;39181;53.440;5.644;2023-05-10T05:34:56;11.60;99.90
53294;DHT22;39181;53.440;5.644;2023-05-10T05:37:21;11.70;99.90
53294;DHT22;39181;53.440;5.644;2023-05-10T05:39:48;11.70;99.90
53294;DHT22;39181;53.440;5.644;2023-05-10T05:42:14;11.70;99.90
53294;DHT22;39181;53.440;5.644;2023-05-10T05:44:41;11.70;99.90
53294;DHT22;39181;53.440;5.644;2023-05-10T05:47:07;11.80;99.90
53294;DHT22;39181;53.440;5.644;2023-05-10T05:49:33;11.80;99.90
53294;DHT22;39181;53.440;5.644;2023-05-10T05:51:59;11.90;99.90
53294;DHT22;39181;53.440;5.644;2023-05-10T05:54:26;11.80;99.90
53294;DHT22;39181;53.440;5.644;2023-05-10T05:56:54;11.80;99.90
53294;DHT22;39181;53.440;5.644;2023-05-10T05:59:20;11.90;99.90
53294;DHT22;39181;53.440;5.644;2023-05-10T06:01:46;11.90;99.90
53294;DHT22;39181;53.440;5.644;2023-05-10T06:04:12;11.90;99.90
53294;DHT22;39181;53.440;5.644;2023-05-10T06:06:37;11.90;99.90
53294;DHT22;39181;53.440;5.644;2023-05-10T06:09:03;12.00;99.90
53294;DHT22;39181;53.440;5.644;2023-05-10T06:11:29;12.00;99.90
53294;DHT22;39181;53.440;5.644;2023-05-10T06:13:55;12.00;99.90
53294;DHT22;39181;53.440;5.644;2023-05-10T06:16:21;12.00;99.90
53294;DHT22;39181;53.440;5.644;2023-05-10T06:18:47;12.00;99.90
53294;DHT22;39181;53.440;5.644;2023-05-10T06:21:12;12.10;99.90
53294;DHT22;39181;53.440;5.644;2023-05-10T06:23:38;12.10;99.90
53294;DHT22;39181;53.440;5.644;2023-05-10T06:26:03;12.10;99.90
53294;DHT22;39181;53.440;5.644;2023-05-10T06:28:29;12.10;99.90
53294;DHT22;39181;53.440;5.644;2023-05-10T06:30:56;12.00;99.90
53294;DHT22;39181;53.440;5.644;2023-05-10T06:33:22;12.00;99.90
53294;DHT22;39181;53.440;5.644;2023-05-10T06:35:47;12.00;99.90
53294;DHT22;39181;53.440;5.644;2023-05-10T06:38:13;12.10;99.90
53294;DHT22;39181;53.440;5.644;2023-05-10T06:40:41;12.10;99.90
53294;DHT22;39181;53.440;5.644;2023-05-10T06:43:07;12.10;99.90
53294;DHT22;39181;53.440;5.644;2023-05-10T06:45:33;12.10;99.90
53294;DHT22;39181;53.440;5.644;2023-05-10T06:47:58;12.10;99.90
53294;DHT22;39181;53.440;5.644;2023-05-10T06:50:24;12.20;99.90
53294;DHT22;39181;53.440;5.644;2023-05-10T06:52:49;12.20;99.90
53294;DHT22;39181;53.440;5.644;2023-05-10T06:55:15;12.30;99.90
53294;DHT22;39181;53.440;5.644;2023-05-10T06:57:41;12.40;99.90
53294;DHT22;39181;53.440;5.644;2023-05-10T07:00:07;12.50;99.90
53294;DHT22;39181;53.440;5.644;2023-05-10T07:02:33;12.60;99.90
53294;DHT22;39181;53.440;5.644;2023-05-10T07:04:58;12.60;99.90
53294;DHT22;39181;53.440;5.644;2023-05-10T07:07:24;12.60;99.90
53294;DHT22;39181;53.440;5.644;2023-05-10T07:09:49;12.60;99.90
53294;DHT22;39181;53.440;5.644;2023-05-10T07:12:15;12.70;99.90
53294;DHT22;39181;53.440;5.644;2023-05-10T07:14:41;12.70;99.90
53294;DHT22;39181;53.440;5.644;2023-05-10T07:17:07;12.60;99.90
53294;DHT22;39181;53.440;5.644;2023-05-10T07:19:32;12.60;99.90
53294;DHT22;39181;53.440;5.644;2023-05-10T07:21:58;12.50;99.90
53294;DHT22;39181;53.440;5.644;2023-05-10T07:24:23;12.50;99.90
53294;DHT22;39181;53.440;5.644;2023-05-10T07:26:49;12.50;99.90
53294;DHT22;39181;53.440;5.644;2023-05-10T07:29:15;12.40;99.90
53294;DHT22;39181;53.440;5.644;2023-05-10T07:31:41;12.40;99.90
53294;DHT22;39181;53.440;5.644;2023-05-10T07:34:09;12.40;99.90
53294;DHT22;39181;53.440;5.644;2023-05-10T07:36:35;12.40;99.90
53294;DHT22;39181;53.440;5.644;2023-05-10T07:39:00;12.40;99.90
53294;DHT22;39181;53.440;5.644;2023-05-10T07:41:26;12.40;99.90
53294;DHT22;39181;53.440;5.644;2023-05-10T07:43:52;12.40;99.90
53294;DHT22;39181;53.440;5.644;2023-05-10T07:46:18;12.50;99.90
53294;DHT22;39181;53.440;5.644;2023-05-10T07:48:45;12.50;99.90
53294;DHT22;39181;53.440;5.644;2023-05-10T07:51:10;12.70;99.90
53294;DHT22;39181;53.440;5.644;2023-05-10T07:53:37;12.60;99.90
53294;DHT22;39181;53.440;5.644;2023-05-10T07:56:21;12.60;99.90
53294;DHT22;39181;53.440;5.644;2023-05-10T07:58:47;12.70;99.90
53294;DHT22;39181;53.440;5.644;2023-05-10T08:01:12;12.70;99.90
53294;DHT22;39181;53.440;5.644;2023-05-10T08:03:38;12.70;99.90
53294;DHT22;39181;53.440;5.644;2023-05-10T08:06:03;12.70;99.90
53294;DHT22;39181;53.440;5.644;2023-05-10T08:08:29;12.70;99.90
53294;DHT22;39181;53.440;5.644;2023-05-10T08:10:55;12.70;99.90
53294;DHT22;39181;53.440;5.644;2023-05-10T08:13:21;12.80;99.90
53294;DHT22;39181;53.440;5.644;2023-05-10T08:15:46;12.80;99.90
53294;DHT22;39181;53.440;5.644;2023-05-10T08:18:12;12.80;99.90
53294;DHT22;39181;53.440;5.644;2023-05-10T08:20:38;12.80;99.90
53294;DHT22;39181;53.440;5.644;2023-05-10T08:23:03;12.80;99.90
53294;DHT22;39181;53.440;5.644;2023-05-10T08:25:29;12.90;99.90
53294;DHT22;39181;53.440;5.644;2023-05-10T08:27:54;13.00;99.90
53294;DHT22;39181;53.440;5.644;2023-05-10T08:30:20;13.10;99.90
53294;DHT22;39181;53.440;5.644;2023-05-10T08:32:46;13.20;99.90
53294;DHT22;39181;53.440;5.644;2023-05-10T08:35:11;13.30;99.90
53294;DHT22;39181;53.440;5.644;2023-05-10T08:37:37;13.30;99.90
53294;DHT22;39181;53.440;5.644;2023-05-10T08:40:02;13.40;99.90
53294;DHT22;39181;53.440;5.644;2023-05-10T08:42:30;13.50;99.90
53294;DHT22;39181;53.440;5.644;2023-05-10T08:44:57;13.60;99.90
53294;DHT22;39181;53.440;5.644;2023-05-10T08:47:25;13.70;99.90
53294;DHT22;39181;53.440;5.644;2023-05-10T08:49:51;13.70;99.90
53294;DHT22;39181;53.440;5.644;2023-05-10T08:52:17;13.70;99.90
53294;DHT22;39181;53.440;5.644;2023-05-10T08:54:43;13.70;99.90
53294;DHT22;39181;53.440;5.644;2023-05-10T08:57:10;13.60;99.90
53294;DHT22;39181;53.440;5.644;2023-05-10T08:59:36;13.60;99.90
53294;DHT22;39181;53.440;5.644;2023-05-10T09:02:05;13.80;99.90
53294;DHT22;39181;53.440;5.644;2023-05-10T09:04:30;13.70;99.90
53294;DHT22;39181;53.440;5.644;2023-05-10T09:06:56;13.70;99.90
53294;DHT22;39181;53.440;5.644;2023-05-10T09:09:23;13.70;99.90
53294;DHT22;39181;53.440;5.644;2023-05-10T09:11:51;13.80;99.90
53294;DHT22;39181;53.440;5.644;2023-05-10T09:14:17;13.90;99.90
53294;DHT22;39181;53.440;5.644;2023-05-10T09:16:43;14.00;99.90
53294;DHT22;39181;53.440;5.644;2023-05-10T09:19:09;14.10;99.90
53294;DHT22;39181;53.440;5.644;2023-05-10T09:21:36;14.00;99.90
53294;DHT22;39181;53.440;5.644;2023-05-10T09:24:07;14.10;99.90
53294;DHT22;39181;53.440;5.644;2023-05-10T09:26:33;14.20;99.90
53294;DHT22;39181;53.440;5.644;2023-05-10T09:29:01;14.30;99.90
53294;DHT22;39181;53.440;5.644;2023-05-10T09:31:51;14.40;99.90
53294;DHT22;39181;53.440;5.644;2023-05-10T09:34:31;14.40;99.90
53294;DHT22;39181;53.440;5.644;2023-05-10T09:36:59;14.40;99.90
53294;DHT22;39181;53.440;5.644;2023-05-10T09:39:37;14.50;99.90
53294;DHT22;39181;53.440;5.644;2023-05-10T09:42:07;14.50;99.90
53294;DHT22;39181;53.440;5.644;2023-05-10T09:44:35;14.40;99.90
53294;DHT22;39181;53.440;5.644;2023-05-10T09:47:02;14.50;99.90
53294;DHT22;39181;53.440;5.644;2023-05-10T09:49:28;14.50;99.90
53294;DHT22;39181;53.440;5.644;2023-05-10T09:52:01;14.40;99.90
53294;DHT22;39181;53.440;5.644;2023-05-10T09:54:27;14.40;99.90
53294;DHT22;39181;53.440;5.644;2023-05-10T09:56:53;14.40;99.90
53294;DHT22;39181;53.440;5.644;2023-05-10T09:59:19;14.50;99.90
53294;DHT22;39181;53.440;5.644;2023-05-10T10:01:50;14.50;99.90
53294;DHT22;39181;53.440;5.644;2023-05-10T10:04:17;14.50;99.90
53294;DHT22;39181;53.440;5.644;2023-05-10T10:06:42;14.60;99.90
53294;DHT22;39181;53.440;5.644;2023-05-10T10:09:09;14.60;99.90
53294;DHT22;39181;53.440;5.644;2023-05-10T10:11:36;14.60;99.90
53294;DHT22;39181;53.440;5.644;2023-05-10T10:14:02;14.60;99.90
53294;DHT22;39181;53.440;5.644;2023-05-10T10:16:31;14.70;99.90
53294;DHT22;39181;53.440;5.644;2023-05-10T10:18:58;14.70;99.90
53294;DHT22;39181;53.440;5.644;2023-05-10T10:21:23;14.70;99.90
53294;DHT22;39181;53.440;5.644;2023-05-10T10:23:50;14.80;99.90
53294;DHT22;39181;53.440;5.644;2023-05-10T10:26:17;14.90;99.90
53294;DHT22;39181;53.440;5.644;2023-05-10T10:29:15;14.90;99.90
53294;DHT22;39181;53.440;5.644;2023-05-10T10:31:57;14.90;99.90
53294;DHT22;39181;53.440;5.644;2023-05-10T10:34:27;14.90;99.90
53294;DHT22;39181;53.440;5.644;2023-05-10T10:36:57;14.90;99.90
53294;DHT22;39181;53.440;5.644;2023-05-10T10:39:23;14.90;99.90
53294;DHT22;39181;53.440;5.644;2023-05-10T10:41:54;14.90;99.90
53294;DHT22;39181;53.440;5.644;2023-05-10T11:03:08;15.40;99.90
53294;DHT22;39181;53.440;5.644;2023-05-10T11:08:29;15.50;99.90
53294;DHT22;39181;53.440;5.644;2023-05-10T11:11:03;15.60;99.90
53294;DHT22;39181;53.440;5.644;2023-05-10T11:13:43;15.70;99.90
53294;DHT22;39181;53.440;5.644;2023-05-10T11:16:13;15.70;99.90
53294;DHT22;39181;53.440;5.644;2023-05-10T11:18:39;15.80;99.90
53294;DHT22;39181;53.440;5.644;2023-05-10T11:21:08;15.80;99.90
53294;DHT22;39181;53.440;5.644;2023-05-10T11:23:49;15.80;99.90
53294;DHT22;39181;53.440;5.644;2023-05-10T11:26:15;16.00;99.90
53294;DHT22;39181;53.440;5.644;2023-05-10T11:28:48;16.10;99.90
53294;DHT22;39181;53.440;5.644;2023-05-10T11:31:15;16.00;99.90
53294;DHT22;39181;53.440;5.644;2023-05-10T11:33:52;15.90;99.90
53294;DHT22;39181;53.440;5.644;2023-05-10T11:36:20;15.90;99.90
53294;DHT22;39181;53.440;5.644;2023-05-10T11:38:47;15.90;99.90
53294;DHT22;39181;53.440;5.644;2023-05-10T11:41:16;15.80;99.90
53294;DHT22;39181;53.440;5.644;2023-05-10T11:43:42;15.80;99.90
53294;DHT22;39181;53.440;5.644;2023-05-10T11:46:10;15.90;99.90
53294;DHT22;39181;53.440;5.644;2023-05-10T11:48:38;15.90;99.90
53294;DHT22;39181;53.440;5.644;2023-05-10T11:51:04;16.10;99.90
53294;DHT22;39181;53.440;5.644;2023-05-10T11:53:31;16.10;99.90
53294;DHT22;39181;53.440;5.644;2023-05-10T11:56:08;16.20;99.90
53294;DHT22;39181;53.440;5.644;2023-05-10T11:58:34;16.10;99.90
53294;DHT22;39181;53.440;5.644;2023-05-10T12:01:00;16.00;99.90
53294;DHT22;39181;53.440;5.644;2023-05-10T12:03:27;16.00;99.90
53294;DHT22;39181;53.440;5.644;2023-05-10T12:05:54;15.80;99.90
53294;DHT22;39181;53.440;5.644;2023-05-10T12:08:23;15.60;99.90
53294;DHT22;39181;53.440;5.644;2023-05-10T12:10:49;15.60;99.90
53294;DHT22;39181;53.440;5.644;2023-05-10T12:13:15;15.50;99.90
53294;DHT22;39181;53.440;5.644;2023-05-10T12:15:41;15.40;99.90
53294;DHT22;39181;53.440;5.644;2023-05-10T12:18:12;15.30;99.90
53294;DHT22;39181;53.440;5.644;2023-05-10T12:20:38;15.20;99.90
53294;DHT22;39181;53.440;5.644;2023-05-10T12:23:04;15.30;99.90
53294;DHT22;39181;53.440;5.644;2023-05-10T12:25:35;15.20;99.90
53294;DHT22;39181;53.440;5.644;2023-05-10T12:28:04;15.10;99.90
53294;DHT22;39181;53.440;5.644;2023-05-10T12:30:32;15.00;99.90
53294;DHT22;39181;53.440;5.644;2023-05-10T12:33:10;15.00;99.90
53294;DHT22;39181;53.440;5.644;2023-05-10T12:35:47;15.00;99.90
53294;DHT22;39181;53.440;5.644;2023-05-10T12:38:32;15.00;99.90
53294;DHT22;39181;53.440;5.644;2023-05-10T12:41:00;15.10;99.90
53294;DHT22;39181;53.440;5.644;2023-05-10T12:43:26;15.20;99.90
53294;DHT22;39181;53.440;5.644;2023-05-10T12:45:52;15.30;99.90
53294;DHT22;39181;53.440;5.644;2023-05-10T12:48:17;15.50;99.90
53294;DHT22;39181;53.440;5.644;2023-05-10T12:50:43;15.50;99.90
53294;DHT22;39181;53.440;5.644;2023-05-10T12:53:09;15.70;99.90
53294;DHT22;39181;53.440;5.644;2023-05-10T12:55:34;15.80;99.90
53294;DHT22;39181;53.440;5.644;2023-05-10T12:58:00;16.00;99.90
53294;DHT22;39181;53.440;5.644;2023-05-10T13:00:25;16.20;99.90
53294;DHT22;39181;53.440;5.644;2023-05-10T13:02:51;16.30;99.90
53294;DHT22;39181;53.440;5.644;2023-05-10T13:05:17;16.30;99.90
53294;DHT22;39181;53.440;5.644;2023-05-10T13:07:43;16.30;99.90
53294;DHT22;39181;53.440;5.644;2023-05-10T13:10:09;16.30;99.90
53294;DHT22;39181;53.440;5.644;2023-05-10T13:12:35;16.30;99.90
53294;DHT22;39181;53.440;5.644;2023-05-10T13:15:01;16.10;99.90
53294;DHT22;39181;53.440;5.644;2023-05-10T13:17:28;16.10;99.90
53294;DHT22;39181;53.440;5.644;2023-05-10T13:19:54;16.00;99.90
53294;DHT22;39181;53.440;5.644;2023-05-10T13:22:20;15.90;99.90
53294;DHT22;39181;53.440;5.644;2023-05-10T13:24:45;15.90;99.90
53294;DHT22;39181;53.440;5.644;2023-05-10T13:27:11;15.90;99.90
53294;DHT22;39181;53.440;5.644;2023-05-10T13:29:36;15.90;99.90
53294;DHT22;39181;53.440;5.644;2023-05-10T13:32:02;15.90;99.90
53294;DHT22;39181;53.440;5.644;2023-05-10T13:34:28;15.90;99.90
53294;DHT22;39181;53.440;5.644;2023-05-10T13:36:53;15.90;99.90
53294;DHT22;39181;53.440;5.644;2023-05-10T13:39:21;15.80;99.90
53294;DHT22;39181;53.440;5.644;2023-05-10T13:41:46;15.80;99.90
53294;DHT22;39181;53.440;5.644;2023-05-10T13:44:13;15.70;99.90
53294;DHT22;39181;53.440;5.644;2023-05-10T13:46:40;15.70;99.90
53294;DHT22;39181;53.440;5.644;2023-05-10T13:49:06;15.70;99.90
53294;DHT22;39181;53.440;5.644;2023-05-10T13:51:32;15.60;99.90
53294;DHT22;39181;53.440;5.644;2023-05-10T13:53:58;15.70;99.90
53294;DHT22;39181;53.440;5.644;2023-05-10T13:56:24;15.70;99.90
53294;DHT22;39181;53.440;5.644;2023-05-10T13:58:49;15.80;99.90
53294;DHT22;39181;53.440;5.644;2023-05-10T14:01:15;15.90;99.90
53294;DHT22;39181;53.440;5.644;2023-05-10T14:03:40;15.70;99.90
53294;DHT22;39181;53.440;5.644;2023-05-10T14:06:06;15.50;99.90
53294;DHT22;39181;53.440;5.644;2023-05-10T14:08:33;15.50;99.90
53294;DHT22;39181;53.440;5.644;2023-05-10T14:10:59;15.50;99.90
53294;DHT22;39181;53.440;5.644;2023-05-10T14:13:24;15.50;99.90
53294;DHT22;39181;53.440;5.644;2023-05-10T14:15:50;15.50;99.90
53294;DHT22;39181;53.440;5.644;2023-05-10T14:18:16;15.40;99.90
53294;DHT22;39181;53.440;5.644;2023-05-10T14:20:41;15.40;99.90
53294;DHT22;39181;53.440;5.644;2023-05-10T14:23:07;15.40;99.90
53294;DHT22;39181;53.440;5.644;2023-05-10T14:25:32;15.20;99.90
53294;DHT22;39181;53.440;5.644;2023-05-10T14:27:58;15.20;99.90
53294;DHT22;39181;53.440;5.644;2023-05-10T14:30:24;15.10;99.90
53294;DHT22;39181;53.440;5.644;2023-05-10T14:32:49;15.20;99.90
53294;DHT22;39181;53.440;5.644;2023-05-10T14:35:15;15.30;99.90
53294;DHT22;39181;53.440;5.644;2023-05-10T14:37:41;15.30;99.90
53294;DHT22;39181;53.440;5.644;2023-05-10T14:40:06;15.30;99.90
53294;DHT22;39181;53.440;5.644;2023-05-10T14:42:32;15.40;99.90
53294;DHT22;39181;53.440;5.644;2023-05-10T14:44:58;15.40;99.90
53294;DHT22;39181;53.440;5.644;2023-05-10T14:47:23;15.40;99.90
53294;DHT22;39181;53.440;5.644;2023-05-10T14:49:49;15.30;99.90
53294;DHT22;39181;53.440;5.644;2023-05-10T14:52:14;15.20;99.90
53294;DHT22;39181;53.440;5.644;2023-05-10T14:54:40;15.10;99.90
53294;DHT22;39181;53.440;5.644;2023-05-10T14:57:06;14.90;99.90
53294;DHT22;39181;53.440;5.644;2023-05-10T14:59:32;14.80;99.90
53294;DHT22;39181;53.440;5.644;2023-05-10T15:01:58;14.80;99.90
53294;DHT22;39181;53.440;5.644;2023-05-10T15:04:23;14.80;99.90
53294;DHT22;39181;53.440;5.644;2023-05-10T15:06:49;14.70;99.90
53294;DHT22;39181;53.440;5.644;2023-05-10T15:09:15;14.80;99.90
53294;DHT22;39181;53.440;5.644;2023-05-10T15:11:41;14.80;99.90
53294;DHT22;39181;53.440;5.644;2023-05-10T15:14:07;14.80;99.90
53294;DHT22;39181;53.440;5.644;2023-05-10T15:16:33;14.80;99.90
53294;DHT22;39181;53.440;5.644;2023-05-10T15:18:58;14.80;99.90
53294;DHT22;39181;53.440;5.644;2023-05-10T15:21:24;14.70;99.90
53294;DHT22;39181;53.440;5.644;2023-05-10T15:23:49;14.60;99.90
53294;DHT22;39181;53.440;5.644;2023-05-10T15:26:15;14.60;99.90
53294;DHT22;39181;53.440;5.644;2023-05-10T15:28:41;14.50;99.90
53294;DHT22;39181;53.440;5.644;2023-05-10T15:31:06;14.50;99.90
53294;DHT22;39181;53.440;5.644;2023-05-10T15:33:32;14.40;99.90
53294;DHT22;39181;53.440;5.644;2023-05-10T15:35:58;14.30;99.90
53294;DHT22;39181;53.440;5.644;2023-05-10T15:38:23;14.20;99.90
53294;DHT22;39181;53.440;5.644;2023-05-10T15:40:49;14.30;99.90
53294;DHT22;39181;53.440;5.644;2023-05-10T15:43:14;14.20;99.90
53294;DHT22;39181;53.440;5.644;2023-05-10T15:45:40;14.20;99.90
53294;DHT22;39181;53.440;5.644;2023-05-10T15:48:06;14.20;99.90
53294;DHT22;39181;53.440;5.644;2023-05-10T15:50:31;14.20;99.90
53294;DHT22;39181;53.440;5.644;2023-05-10T15:52:57;14.20;99.90
53294;DHT22;39181;53.440;5.644;2023-05-10T15:55:22;14.10;99.90
53294;DHT22;39181;53.440;5.644;2023-05-10T15:57:48;14.00;99.90
53294;DHT22;39181;53.440;5.644;2023-05-10T16:00:14;14.00;99.90
53294;DHT22;39181;53.440;5.644;2023-05-10T16:02:40;13.90;99.90
53294;DHT22;39181;53.440;5.644;2023-05-10T16:05:06;13.80;99.90
53294;DHT22;39181;53.440;5.644;2023-05-10T16:07:32;13.70;99.90